Time;durP1;ratioP1;P1;durP2;ratioP2;P2;SDS_P1;SDS_P2;PMS_P1;PMS_P2;Temp;Humidity;BMP_temperature;BMP_pressure;BME280_temperature;BME280_humidity;BME280_pressure;Samples;Min_cycle;Max_cycle;Signal;HPM_P1;HPM_P2
2023/12/03 00:02:02;;;;;;;1999.90;999.90;;;;;;;4.93;70.14;101753.69;10334324;28;20058;-72
2023/12/03 00:07:05;;;;;;;1999.90;999.90;;;;;;;4.81;72.35;101752.19;10335996;28;20130;-72
2023/12/03 00:12:08;;;;;;;1999.90;999.90;;;;;;;4.68;74.25;101758.47;10334764;28;20113;-72
2023/12/03 00:17:10;;;;;;;1999.90;999.90;;;;;;;4.45;73.73;101755.41;10334283;28;20478;-72
2023/12/03 00:22:13;;;;;;;1999.90;999.90;;;;;;;5.05;72.51;101750.88;10335096;28;20065;-72
2023/12/03 00:27:16;;;;;;;1999.90;999.90;;;;;;;5.34;71.61;101741.63;10334036;28;20054;-72
2023/12/03 00:32:18;;;;;;;1999.90;999.90;;;;;;;4.80;74.35;101748.72;10333927;28;20104;-72
2023/12/03 00:37:20;;;;;;;1999.90;999.90;;;;;;;5.00;75.64;101757.88;10333856;28;20052;-72
2023/12/03 00:42:23;;;;;;;1999.90;999.90;;;;;;;5.53;74.28;101768.97;10334764;28;20077;-72
2023/12/03 00:47:25;;;;;;;1999.90;999.90;;;;;;;5.19;74.34;101766.16;10333425;28;20413;-72
2023/12/03 00:52:28;;;;;;;1999.90;999.90;;;;;;;5.68;73.13;101761.72;10334459;28;20108;-72
2023/12/03 00:57:30;;;;;;;1999.90;999.90;;;;;;;6.79;68.55;101764.31;10334145;28;20057;-73
2023/12/03 01:02:34;;;;;;;1999.90;999.90;;;;;;;6.04;71.07;101769.63;10334316;28;20046;-73
2023/12/03 01:07:36;;;;;;;1999.90;999.90;;;;;;;6.44;70.19;101779.94;10332769;28;20046;-73
2023/12/03 01:12:38;;;;;;;1999.90;999.90;;;;;;;5.55;75.33;101780.16;10334037;28;20054;-72
2023/12/03 01:17:41;;;;;;;1999.90;999.90;;;;;;;6.17;72.80;101773.66;10333853;28;20053;-72
2023/12/03 01:22:43;;;;;;;1999.90;999.90;;;;;;;5.30;73.80;101785.00;10333357;28;20058;-72
2023/12/03 01:27:46;;;;;;;1999.90;999.90;;;;;;;6.27;70.95;101793.34;10333495;28;20477;-72
2023/12/03 01:32:48;;;;;;;1999.90;999.90;;;;;;;6.80;69.91;101792.91;10333442;28;20050;-73
2023/12/03 01:37:51;;;;;;;1999.90;999.90;;;;;;;7.03;68.59;101787.13;10330620;23;20089;-62
2023/12/03 01:42:54;;;;;;;1999.90;999.90;;;;;;;6.32;72.15;101798.41;10293197;28;20135;-62
2023/12/03 01:47:56;;;;;;;1999.90;999.90;;;;;;;7.08;68.76;101792.22;10293184;28;20053;-62
2023/12/03 01:52:58;;;;;;;1999.90;999.90;;;;;;;6.58;70.06;101796.97;10291978;28;20055;-61
2023/12/03 01:58:01;;;;;;;1999.90;999.90;;;;;;;6.03;73.17;101809.50;10292092;28;20043;-62
2023/12/03 02:03:03;;;;;;;1999.90;999.90;;;;;;;5.97;73.09;101814.84;10291571;28;20407;-62
2023/12/03 02:08:05;;;;;;;1999.90;999.90;;;;;;;5.97;72.28;101814.84;10291599;28;20162;-62
2023/12/03 02:13:08;;;;;;;1999.90;999.90;;;;;;;6.37;73.10;101817.41;10292822;28;20055;-62
2023/12/03 02:18:11;;;;;;;1999.90;999.90;;;;;;;6.84;70.16;101818.00;10291426;28;20051;-62
2023/12/03 02:23:15;;;;;;;1999.90;999.90;;;;;;;6.45;71.63;101819.81;10293102;28;20055;-61
2023/12/03 02:28:18;;;;;;;1999.90;999.90;;;;;;;7.28;69.82;101820.31;10299754;28;20047;-62
2023/12/03 02:33:20;;;;;;;1999.90;999.90;;;;;;;7.05;68.49;101821.78;10299464;28;20083;-62
2023/12/03 02:38:22;;;;;;;1999.90;999.90;;;;;;;6.63;69.82;101821.13;10298953;28;20081;-62
2023/12/03 02:43:25;;;;;;;1999.90;999.90;;;;;;;7.30;70.12;101813.31;10299030;28;20134;-62
2023/12/03 02:48:27;;;;;;;1999.90;999.90;;;;;;;6.27;72.95;101821.09;10298833;28;20047;-62
2023/12/03 02:53:30;;;;;;;1999.90;999.90;;;;;;;6.90;69.63;101816.13;10298675;28;20482;-62
2023/12/03 02:58:33;;;;;;;1999.90;999.90;;;;;;;6.94;71.31;101817.75;10298356;28;20126;-61
2023/12/03 03:03:36;;;;;;;1999.90;999.90;;;;;;;6.33;73.44;101813.16;10298215;28;20379;-61
2023/12/03 03:08:38;;;;;;;1999.90;999.90;;;;;;;7.24;70.07;101813.47;10298111;28;20085;-61
2023/12/03 03:13:41;;;;;;;1999.90;999.90;;;;;;;7.20;69.15;101823.13;10297758;28;20410;-62
2023/12/03 03:18:43;;;;;;;1999.90;999.90;;;;;;;7.74;67.32;101828.59;10297751;28;20065;-62
2023/12/03 03:23:45;;;;;;;1999.90;999.90;;;;;;;7.07;69.26;101834.75;10297539;28;20054;-62
2023/12/03 03:28:48;;;;;;;1999.90;999.90;;;;;;;7.95;65.81;101834.91;10297471;28;20042;-62
2023/12/03 03:33:50;;;;;;;1999.90;999.90;;;;;;;8.10;65.77;101834.47;10297196;28;20057;-62
2023/12/03 03:38:53;;;;;;;1999.90;999.90;;;;;;;7.62;68.24;101832.41;10296678;28;20549;-62
2023/12/03 03:43:55;;;;;;;1999.90;999.90;;;;;;;7.34;67.85;101829.72;10296652;28;20126;-62
2023/12/03 03:48:57;;;;;;;1999.90;999.90;;;;;;;7.36;66.90;101835.72;10296522;28;20486;-62
2023/12/03 03:54:00;;;;;;;1999.90;999.90;;;;;;;7.85;67.17;101838.69;10296493;28;20085;-62
2023/12/03 03:59:02;;;;;;;1999.90;999.90;;;;;;;7.42;68.03;101843.38;10294940;28;20457;-62
2023/12/03 04:04:05;;;;;;;1999.90;999.90;;;;;;;7.31;67.88;101841.06;10295991;28;20059;-62
2023/12/03 04:09:07;;;;;;;1999.90;999.90;;;;;;;6.96;67.05;101837.66;10295785;28;20051;-62
2023/12/03 04:14:12;;;;;;;1999.90;999.90;;;;;;;5.94;72.36;101842.56;10278689;28;20050;-62
2023/12/03 04:19:15;;;;;;;1999.90;999.90;;;;;;;7.36;66.83;101839.19;10295706;28;20039;-62
2023/12/03 04:24:17;;;;;;;1999.90;999.90;;;;;;;7.63;65.64;101844.53;10295154;28;20110;-62
2023/12/03 04:29:20;;;;;;;1999.90;999.90;;;;;;;7.92;65.26;101845.47;10294985;28;20387;-62
2023/12/03 04:34:22;;;;;;;1999.90;999.90;;;;;;;7.49;64.92;101844.91;10293700;28;20063;-62
2023/12/03 04:39:24;;;;;;;1999.90;999.90;;;;;;;7.50;65.04;101849.25;10294504;28;20462;-62
2023/12/03 04:44:27;;;;;;;1999.90;999.90;;;;;;;8.03;63.52;101842.53;10294549;28;20079;-62
2023/12/03 04:49:29;;;;;;;1999.90;999.90;;;;;;;7.27;66.89;101839.44;10294144;28;20051;-62
2023/12/03 04:54:32;;;;;;;1999.90;999.90;;;;;;;7.36;66.63;101839.19;10294394;28;20054;-62
2023/12/03 04:59:34;;;;;;;1999.90;999.90;;;;;;;7.11;65.09;101853.75;10294029;28;20051;-62
2023/12/03 05:04:37;;;;;;;1999.90;999.90;;;;;;;7.82;63.41;101856.13;10293853;28;20074;-62
2023/12/03 05:09:39;;;;;;;1999.90;999.90;;;;;;;6.78;66.23;101867.59;10293811;28;20058;-62
2023/12/03 05:14:42;;;;;;;1999.90;999.90;;;;;;;5.88;68.06;101873.03;10293860;28;20117;-62
2023/12/03 05:19:45;;;;;;;1999.90;999.90;;;;;;;7.18;66.53;101876.16;10292434;28;20054;-62
2023/12/03 05:24:48;;;;;;;1999.90;999.90;;;;;;;7.62;65.12;101867.13;10293524;28;20518;-62
2023/12/03 05:29:50;;;;;;;1999.90;999.90;;;;;;;7.05;66.64;101868.66;10293677;28;20130;-62
2023/12/03 05:34:52;;;;;;;1999.90;999.90;;;;;;;6.18;68.64;101874.16;10293326;28;20383;-62
2023/12/03 05:39:55;;;;;;;1999.90;999.90;;;;;;;6.66;68.30;101875.72;10292953;28;20490;-62
2023/12/03 05:44:57;;;;;;;1999.90;999.90;;;;;;;6.69;66.07;101878.22;10293237;28;20055;-62
2023/12/03 05:50:01;;;;;;;1999.90;999.90;;;;;;;6.76;66.55;101879.78;10293015;28;20047;-62
2023/12/03 05:55:04;;;;;;;1999.90;999.90;;;;;;;6.49;66.65;101883.91;10291804;28;20064;-62
2023/12/03 06:00:07;;;;;;;1999.90;999.90;;;;;;;6.10;68.02;101876.94;10295216;28;20483;-62
2023/12/03 06:05:10;;;;;;;1999.90;999.90;;;;;;;6.24;66.59;101881.00;10300494;28;20402;-62
2023/12/03 06:10:13;;;;;;;1999.90;999.90;;;;;;;5.81;68.46;101880.09;10300394;28;20057;-62
2023/12/03 06:15:15;;;;;;;1999.90;999.90;;;;;;;6.19;66.75;101878.50;10300370;28;20051;-62
2023/12/03 06:20:17;;;;;;;1999.90;999.90;;;;;;;6.07;68.04;101895.22;10299919;28;20109;-62
2023/12/03 06:25:20;;;;;;;1999.90;999.90;;;;;;;5.05;70.08;101898.81;10300085;28;20075;-62
2023/12/03 06:30:22;;;;;;;1999.90;999.90;;;;;;;6.27;67.93;101892.19;10299716;28;20042;-62
2023/12/03 06:35:24;;;;;;;1999.90;999.90;;;;;;;6.33;67.05;101894.63;10299390;28;20051;-62
2023/12/03 06:40:27;;;;;;;1999.90;999.90;;;;;;;6.23;66.41;101895.72;10298812;28;20402;-62
2023/12/03 06:45:29;;;;;;;1999.90;999.90;;;;;;;6.30;66.59;101905.13;10298990;28;20065;-62
2023/12/03 06:50:32;;;;;;;1999.90;999.90;;;;;;;5.89;66.37;101903.34;10299023;28;20046;-62
2023/12/03 06:55:34;;;;;;;1999.90;999.90;;;;;;;5.84;66.96;101908.63;10297650;28;20130;-62
2023/12/03 07:00:37;;;;;;;1999.90;999.90;;;;;;;5.64;66.77;101913.38;10298384;28;20380;-62
2023/12/03 07:05:41;;;;;;;1999.90;999.90;;;;;;;5.79;66.69;101920.88;10298477;28;20069;-62
2023/12/03 07:10:44;;;;;;;1999.90;999.90;;;;;;;6.23;66.93;101916.53;10297699;28;20477;-62
2023/12/03 07:15:46;;;;;;;1999.90;999.90;;;;;;;5.67;67.11;101924.56;10298182;28;20130;-62
2023/12/03 07:20:49;;;;;;;1999.90;999.90;;;;;;;5.19;68.37;101942.72;10297686;28;20529;-62
2023/12/03 07:25:51;;;;;;;1999.90;999.90;;;;;;;5.16;67.96;101946.25;10297815;28;20054;-62
2023/12/03 07:30:53;;;;;;;1999.90;999.90;;;;;;;5.25;67.08;101947.81;10297395;28;20055;-62
2023/12/03 07:35:57;;;;;;;1999.90;999.90;;;;;;;5.32;67.81;101943.38;10297197;28;20054;-62
2023/12/03 07:40:59;;;;;;;1999.90;999.90;;;;;;;5.37;67.04;101946.75;10296660;28;20133;-62
2023/12/03 07:46:02;;;;;;;1999.90;999.90;;;;;;;5.39;68.90;101951.03;10295660;28;20057;-62
2023/12/03 07:51:09;;;;;;;1999.90;999.90;;;;;;;5.67;67.37;101954.88;10296543;28;20080;-62
2023/12/03 07:56:12;;;;;;;1999.90;999.90;;;;;;;5.20;67.34;101953.06;10296410;28;20066;-62
2023/12/03 08:01:14;;;;;;;1999.90;999.90;;;;;;;5.88;65.39;101951.88;10296303;28;20057;-63
2023/12/03 08:06:17;;;;;;;1999.90;999.90;;;;;;;5.08;66.68;101949.81;10295931;28;20050;-62
2023/12/03 08:11:20;;;;;;;1999.90;999.90;;;;;;;5.58;66.34;101953.28;10294489;28;20078;-62
2023/12/03 08:16:22;;;;;;;1999.90;999.90;;;;;;;5.20;67.54;101950.47;10295543;28;20492;-63
2023/12/03 08:21:24;;;;;;;1999.90;999.90;;;;;;;5.07;66.94;101948.97;10293471;28;20046;-63
2023/12/03 08:26:27;;;;;;;1999.90;999.90;;;;;;;5.24;67.29;101953.03;10294223;28;20050;-62
2023/12/03 08:31:29;;;;;;;1999.90;999.90;;;;;;;5.66;66.21;101947.97;10294965;28;20497;-62
2023/12/03 08:36:32;;;;;;;1999.90;999.90;;;;;;;5.30;66.36;101960.72;10294582;28;20149;-63
2023/12/03 08:41:36;;;;;;;1999.90;999.90;;;;;;;6.11;66.24;101953.19;10309653;28;20137;-62
2023/12/03 08:46:38;;;;;;;1999.90;999.90;;;;;;;5.06;66.97;101960.25;10294395;28;20051;-62
2023/12/03 08:51:41;;;;;;;1999.90;999.90;;;;;;;5.35;67.04;101972.75;10294325;28;20061;-62
2023/12/03 08:56:43;;;;;;;1999.90;999.90;;;;;;;4.94;67.32;101966.50;10293097;28;20062;-62
2023/12/03 09:01:50;;;;;;;1999.90;999.90;;;;;;;5.00;68.51;101962.94;10293934;28;20506;-62
2023/12/03 09:06:52;;;;;;;1999.90;999.90;;;;;;;5.18;67.29;101969.59;10294069;28;20059;-62
2023/12/03 09:11:55;;;;;;;1999.90;999.90;;;;;;;6.21;64.96;101972.94;10293636;28;20094;-62
2023/12/03 09:16:58;;;;;;;1999.90;999.90;;;;;;;6.94;60.62;101966.16;10293515;28;20051;-63
2023/12/03 09:22:00;;;;;;;1999.90;999.90;;;;;;;6.91;62.05;101980.09;10293356;28;20054;-63
2023/12/03 09:27:03;;;;;;;1999.90;999.90;;;;;;;6.70;60.88;101978.84;10293555;28;20047;-62
2023/12/03 09:32:05;;;;;;;1999.90;999.90;;;;;;;6.62;61.73;101986.81;10293710;28;20392;-62
2023/12/03 09:37:07;;;;;;;1999.90;999.90;;;;;;;6.00;63.34;101988.94;10301387;28;20055;-62
2023/12/03 09:42:10;;;;;;;1999.90;999.90;;;;;;;6.05;61.77;101987.13;10301370;28;20050;-62
2023/12/03 09:47:14;;;;;;;1999.90;999.90;;;;;;;7.75;60.40;101987.56;10300047;28;20061;-62
2023/12/03 09:52:18;;;;;;;1999.90;999.90;;;;;;;6.41;60.96;101987.28;10301069;28;20049;-62
2023/12/03 09:57:22;;;;;;;1999.90;999.90;;;;;;;6.82;61.40;101986.34;10299460;28;20161;-62
2023/12/03 10:02:28;;;;;;;1999.90;999.90;;;;;;;6.62;60.24;101993.75;10299704;28;20055;-62
2023/12/03 10:07:31;;;;;;;1999.90;999.90;;;;;;;5.86;60.46;101987.44;10300360;28;20491;-62
2023/12/03 10:12:43;;;;;;;1999.90;999.90;;;;;;;7.20;60.20;101970.75;10299243;28;20057;-62
2023/12/03 10:17:45;;;;;;;1999.90;999.90;;;;;;;7.19;60.02;101972.47;10299129;28;20106;-62
2023/12/03 10:22:49;;;;;;;1999.90;999.90;;;;;;;6.64;60.42;101965.94;10299709;28;20051;-62
2023/12/03 10:27:56;;;;;;;1999.90;999.90;;;;;;;6.77;60.79;101956.97;10298722;28;20057;-62
2023/12/03 10:32:59;;;;;;;1999.90;999.90;;;;;;;7.39;58.19;101958.09;10299663;28;20051;-62
2023/12/03 10:38:05;;;;;;;1999.90;999.90;;;;;;;7.98;58.29;101954.78;10299216;28;20055;-62
2023/12/03 10:43:11;;;;;;;1999.90;999.90;;;;;;;7.37;58.96;101942.50;10297932;28;20117;-62
2023/12/03 10:48:14;;;;;;;1999.90;999.90;;;;;;;6.93;59.64;101947.06;10298291;28;20081;-62
2023/12/03 10:53:18;;;;;;;1999.90;999.90;;;;;;;8.53;57.24;101936.72;10297596;28;20418;-62
2023/12/03 10:58:21;;;;;;;1999.90;999.90;;;;;;;8.43;57.49;101930.91;10297780;28;20054;-62
2023/12/03 11:03:47;;;;;;;1999.90;999.90;;;;;;;8.16;57.86;101935.16;10297440;28;20077;-62
2023/12/03 11:08:53;;;;;;;1999.90;999.90;;;;;;;7.54;57.01;101928.19;10297430;28;20090;-62
2023/12/03 11:13:56;;;;;;;1999.90;999.90;;;;;;;7.19;57.58;101935.16;10297085;28;20069;-62
2023/12/03 11:19:06;;;;;;;1999.90;999.90;;;;;;;7.71;55.95;101918.16;10296490;28;20074;-62
2023/12/03 11:24:15;;;;;;;1999.90;999.90;;;;;;;8.48;55.17;101915.13;10296579;28;20054;-62
2023/12/03 11:29:17;;;;;;;1999.90;999.90;;;;;;;7.88;54.96;101915.06;10297357;28;20504;-62
2023/12/03 11:34:22;;;;;;;1999.90;999.90;;;;;;;7.83;55.85;101914.34;10297448;28;20054;-62
2023/12/03 11:39:26;;;;;;;1999.90;999.90;;;;;;;7.89;54.71;101911.56;10296851;28;20536;-62
2023/12/03 11:44:28;;;;;;;1999.90;999.90;;;;;;;8.39;55.23;101900.56;10296801;28;20395;-62
2023/12/03 11:49:34;;;;;;;1999.90;999.90;;;;;;;8.58;56.00;101887.81;10295644;28;20051;-62
2023/12/03 11:54:59;;;;;;;1999.90;999.90;;;;;;;7.52;56.50;101878.72;10296473;28;20134;-62
2023/12/03 12:00:06;;;;;;;1999.90;999.90;;;;;;;7.90;56.38;101868.09;10294172;28;20047;-62
2023/12/03 12:05:09;;;;;;;1999.90;999.90;;;;;;;7.75;55.98;101858.94;10296315;28;20055;-62
2023/12/03 12:10:11;;;;;;;1999.90;999.90;;;;;;;8.02;56.30;101862.53;10295916;28;20049;-62
2023/12/03 12:15:14;;;;;;;1999.90;999.90;;;;;;;7.86;57.46;101853.44;10295670;28;20054;-62
2023/12/03 12:20:26;;;;;;;1999.90;999.90;;;;;;;8.44;55.92;101861.28;10295453;28;20073;-62
2023/12/03 12:25:30;;;;;;;1999.90;999.90;;;;;;;8.11;55.90;101858.78;10294150;28;20087;-62
2023/12/03 12:30:33;;;;;;;1999.90;999.90;;;;;;;7.43;55.81;101839.84;10295080;28;20475;-62
2023/12/03 12:35:37;;;;;;;1999.90;999.90;;;;;;;8.67;56.02;101842.28;10295056;28;20059;-62
2023/12/03 12:40:52;;;;;;;1999.90;999.90;;;;;;;9.04;55.95;101839.28;10294521;28;20134;-62
2023/12/03 12:45:56;;;;;;;1999.90;999.90;;;;;;;7.15;56.75;101837.16;10293463;28;20050;-62
2023/12/03 12:50:58;;;;;;;1999.90;999.90;;;;;;;7.91;56.60;101851.56;10294399;28;20050;-62
2023/12/03 12:56:01;;;;;;;1999.90;999.90;;;;;;;8.21;56.40;101846.34;10294374;28;20061;-62
2023/12/03 13:01:03;;;;;;;1999.90;999.90;;;;;;;7.39;57.39;101846.06;10294061;28;20126;-62
2023/12/03 13:06:06;;;;;;;1999.90;999.90;;;;;;;8.16;57.43;101844.69;10292963;28;20118;-62
2023/12/03 13:11:09;;;;;;;1999.90;999.90;;;;;;;7.98;57.70;101837.44;10293564;28;20053;-62
2023/12/03 13:16:12;;;;;;;1999.90;999.90;;;;;;;8.07;56.59;101841.50;10292439;28;20414;-62
2023/12/03 13:21:16;;;;;;;1999.90;999.90;;;;;;;9.00;55.64;101842.06;10293430;28;20050;-62
2023/12/03 13:26:18;;;;;;;1999.90;999.90;;;;;;;8.74;56.46;101842.03;10292402;28;20494;-62
2023/12/03 13:31:20;;;;;;;1999.90;999.90;;;;;;;8.45;55.07;101826.47;10293596;28;20130;-62
2023/12/03 13:36:24;;;;;;;1999.90;999.90;;;;;;;8.35;56.89;101825.88;10293140;28;20129;-62
2023/12/03 13:41:30;;;;;;;1999.90;999.90;;;;;;;8.51;56.85;101818.44;10292937;28;20102;-62
2023/12/03 13:46:34;;;;;;;1999.90;999.90;;;;;;;8.13;57.54;101812.63;10293165;28;20054;-62
2023/12/03 13:51:36;;;;;;;1999.90;999.90;;;;;;;7.99;54.76;101800.03;10329262;22;20564;-61
2023/12/03 13:56:38;;;;;;;1999.90;999.90;;;;;;;8.28;55.33;101780.00;10414589;28;20140;-62
2023/12/03 14:01:41;;;;;;;1999.90;999.90;;;;;;;7.58;56.20;101804.69;10414220;28;20392;-62
2023/12/03 14:06:43;;;;;;;1999.90;999.90;;;;;;;7.56;56.22;101794.31;10414486;28;20111;-61
2023/12/03 14:11:46;;;;;;;1999.90;999.90;;;;;;;8.03;54.89;101804.25;10414165;28;20057;-61
2023/12/03 14:16:59;;;;;;;1999.90;999.90;;;;;;;8.07;55.17;101813.69;10414117;28;20132;-61
2023/12/03 14:22:01;;;;;;;1999.90;999.90;;;;;;;7.60;55.41;101805.53;10418949;28;20073;-61
2023/12/03 14:27:03;;;;;;;1999.90;999.90;;;;;;;8.02;56.44;101807.75;10421480;28;20140;-61
2023/12/03 14:32:07;;;;;;;1999.90;999.90;;;;;;;8.42;55.53;101810.88;10421336;28;20053;-62
2023/12/03 14:37:09;;;;;;;1999.90;999.90;;;;;;;7.96;55.44;101794.91;10421225;28;20052;-61
2023/12/03 14:42:11;;;;;;;1999.90;999.90;;;;;;;7.80;56.37;101789.28;10420904;28;20404;-62
2023/12/03 14:47:14;;;;;;;1999.90;999.90;;;;;;;7.80;56.33;101787.56;10420626;28;20064;-62
2023/12/03 14:52:16;;;;;;;1999.90;999.90;;;;;;;7.67;57.07;101790.56;10420253;28;20475;-62
2023/12/03 14:57:18;;;;;;;1999.90;999.90;;;;;;;8.08;56.33;101780.63;10420394;28;20055;-62
2023/12/03 15:02:21;;;;;;;1999.90;999.90;;;;;;;8.06;55.69;101785.06;10420144;28;20046;-62
2023/12/03 15:07:23;;;;;;;1999.90;999.90;;;;;;;7.82;56.44;101775.31;10419923;28;20420;-62
2023/12/03 15:12:25;;;;;;;1999.90;999.90;;;;;;;7.39;57.10;101773.97;10419769;28;20045;-62
2023/12/03 15:17:29;;;;;;;1999.90;999.90;;;;;;;7.61;56.83;101771.59;10419750;28;20049;-62
2023/12/03 15:22:32;;;;;;;1999.90;999.90;;;;;;;7.37;56.49;101764.50;10418043;28;20485;-63
2023/12/03 15:27:35;;;;;;;1999.90;999.90;;;;;;;8.43;55.29;101766.50;10419082;28;20049;-62
2023/12/03 15:32:37;;;;;;;1999.90;999.90;;;;;;;8.46;54.93;101770.75;10418811;28;20041;-63
2023/12/03 15:37:40;;;;;;;1999.90;999.90;;;;;;;7.38;57.36;101763.56;10418625;28;20451;-62
2023/12/03 15:42:42;;;;;;;1999.90;999.90;;;;;;;8.28;56.98;101762.59;10418628;28;20045;-62
2023/12/03 15:47:44;;;;;;;1999.90;999.90;;;;;;;8.73;55.40;101750.72;10418409;28;20062;-61
2023/12/03 15:52:48;;;;;;;1999.90;999.90;;;;;;;7.17;58.81;101741.59;10418294;28;20052;-62
2023/12/03 15:57:50;;;;;;;1999.90;999.90;;;;;;;6.87;59.35;101731.97;10416978;28;20053;-61
2023/12/03 16:02:57;;;;;;;1999.90;999.90;;;;;;;7.25;59.17;101724.00;10416659;28;20045;-61
2023/12/03 16:07:59;;;;;;;1999.90;999.90;;;;;;;7.04;59.35;101710.72;10417835;28;20124;-62
2023/12/03 16:13:01;;;;;;;1999.90;999.90;;;;;;;7.76;57.84;101712.91;10417399;28;20046;-62
2023/12/03 16:18:04;;;;;;;1999.90;999.90;;;;;;;7.18;59.56;101705.09;10416317;28;20064;-62
2023/12/03 16:23:07;;;;;;;1999.90;999.90;;;;;;;6.70;60.97;101695.16;10416965;28;20111;-62
2023/12/03 16:28:10;;;;;;;1999.90;999.90;;;;;;;6.37;61.70;101683.88;10415858;28;20128;-62
2023/12/03 16:33:12;;;;;;;1999.90;999.90;;;;;;;6.87;60.46;101685.13;10415496;28;20048;-62
2023/12/03 16:38:14;;;;;;;1999.90;999.90;;;;;;;6.75;61.15;101680.25;10416568;28;20081;-63
2023/12/03 16:43:17;;;;;;;1999.90;999.90;;;;;;;6.54;61.11;101668.69;10415626;28;20050;-62
2023/12/03 16:48:21;;;;;;;1999.90;999.90;;;;;;;6.66;60.55;101667.50;10416251;28;20080;-61
2023/12/03 16:53:24;;;;;;;1999.90;999.90;;;;;;;6.55;60.97;101670.38;10414559;28;20412;-62
2023/12/03 16:58:26;;;;;;;1999.90;999.90;;;;;;;7.15;59.12;101658.31;10415718;28;20053;-62
2023/12/03 17:03:29;;;;;;;1999.90;999.90;;;;;;;6.80;59.67;101667.97;10414515;28;20046;-61
2023/12/03 17:08:32;;;;;;;1999.90;999.90;;;;;;;6.87;60.17;101666.06;10414419;28;20049;-61
2023/12/03 17:13:34;;;;;;;1999.90;999.90;;;;;;;6.90;60.01;101667.72;10415248;28;20128;-63
2023/12/03 17:18:37;;;;;;;1999.90;999.90;;;;;;;6.65;60.71;101658.00;10415195;28;20049;-61
2023/12/03 17:23:40;;;;;;;1999.90;999.90;;;;;;;6.69;61.11;101659.59;10397583;28;20542;-61
2023/12/03 17:28:42;;;;;;;1999.90;999.90;;;;;;;6.95;60.95;101658.03;10415100;28;20401;-61
2023/12/03 17:33:45;;;;;;;1999.90;999.90;;;;;;;6.95;61.71;101655.44;10413854;28;20056;-62
2023/12/03 17:38:47;;;;;;;1999.90;999.90;;;;;;;5.96;64.37;101652.81;10414237;28;20045;-62
2023/12/03 17:43:51;;;;;;;1999.90;999.90;;;;;;;6.49;64.56;101652.34;10413709;28;20060;-62
2023/12/03 17:48:53;;;;;;;1999.90;999.90;;;;;;;5.72;67.55;101651.63;10414702;28;20049;-63
2023/12/03 17:53:56;;;;;;;1999.90;999.90;;;;;;;6.03;67.55;101643.13;10416105;28;20076;-62
2023/12/03 17:58:58;;;;;;;1999.90;999.90;;;;;;;6.32;67.38;101631.97;10422558;28;20054;-62
2023/12/03 18:04:01;;;;;;;1999.90;999.90;;;;;;;6.16;67.32;101622.88;10422337;28;20128;-62
2023/12/03 18:09:03;;;;;;;1999.90;999.90;;;;;;;5.72;68.17;101617.84;10422325;28;20480;-62
2023/12/03 18:14:06;;;;;;;1999.90;999.90;;;;;;;5.65;70.82;101614.56;10421972;28;20088;-62
2023/12/03 18:19:08;;;;;;;1999.90;999.90;;;;;;;5.38;72.77;101608.25;10421753;28;20508;-62
2023/12/03 18:24:11;;;;;;;1999.90;999.90;;;;;;;6.15;70.31;101598.59;10421738;28;20077;-62
2023/12/03 18:29:13;;;;;;;1999.90;999.90;;;;;;;5.91;69.81;101600.06;10421571;28;20050;-62
2023/12/03 18:34:15;;;;;;;1999.90;999.90;;;;;;;5.50;71.30;101589.78;10420030;28;20424;-62
2023/12/03 18:39:18;;;;;;;1999.90;999.90;;;;;;;5.36;73.33;101584.91;10421101;28;20053;-61
2023/12/03 18:44:21;;;;;;;1999.90;999.90;;;;;;;5.26;73.16;101586.03;10420991;28;20052;-61
2023/12/03 18:49:23;;;;;;;1999.90;999.90;;;;;;;5.88;72.00;101576.75;10420680;28;20053;-61
2023/12/03 18:54:26;;;;;;;1999.90;999.90;;;;;;;6.21;71.50;101566.41;10420264;28;20455;-62
2023/12/03 18:59:28;;;;;;;1999.90;999.90;;;;;;;5.80;72.08;101571.75;10420242;28;20045;-61
2023/12/03 19:04:31;;;;;;;1999.90;999.90;;;;;;;5.65;73.14;101566.91;10420347;28;20057;-62
2023/12/03 19:09:35;;;;;;;1999.90;999.90;;;;;;;5.58;72.64;101567.09;10419751;28;20050;-62
2023/12/03 19:14:37;;;;;;;1999.90;999.90;;;;;;;5.53;73.27;101558.53;10419703;28;20507;-62
2023/12/03 19:19:40;;;;;;;1999.90;999.90;;;;;;;5.72;73.30;101568.50;10419638;28;20053;-62
2023/12/03 19:24:42;;;;;;;1999.90;999.90;;;;;;;5.63;72.05;101560.91;10418200;28;20049;-62
2023/12/03 19:29:45;;;;;;;1999.90;999.90;;;;;;;5.99;71.67;101540.97;10419389;28;20053;-62
2023/12/03 19:34:47;;;;;;;1999.90;999.90;;;;;;;5.65;73.02;101539.22;10418917;28;20137;-62
2023/12/03 19:39:50;;;;;;;1999.90;999.90;;;;;;;5.73;73.75;101526.00;10418736;28;20103;-62
2023/12/03 19:44:52;;;;;;;1999.90;999.90;;;;;;;5.08;74.93;101524.97;10419081;28;20107;-61
2023/12/03 19:49:54;;;;;;;1999.90;999.90;;;;;;;5.36;74.52;101514.81;10418766;28;20481;-62
2023/12/03 19:54:57;;;;;;;1999.90;999.90;;;;;;;5.90;74.12;101509.97;10418158;28;20057;-61
2023/12/03 20:00:00;;;;;;;1999.90;999.90;;;;;;;5.72;74.41;101501.78;10417884;28;20045;-61
2023/12/03 20:05:03;;;;;;;1999.90;999.90;;;;;;;5.77;73.39;101499.06;10417998;28;20057;-61
2023/12/03 20:10:08;;;;;;;1999.90;999.90;;;;;;;5.37;75.95;101492.28;10417647;28;20049;-61
2023/12/03 20:15:11;;;;;;;1999.90;999.90;;;;;;;5.76;74.17;101489.56;10416568;28;20057;-62
2023/12/03 20:20:26;;;;;;;1999.90;999.90;;;;;;;5.21;76.29;101476.19;10416368;28;20049;-62
2023/12/03 20:25:28;;;;;;;1999.90;999.90;;;;;;;6.21;71.48;101481.44;10416923;28;20088;-62
2023/12/03 20:30:30;;;;;;;1999.90;999.90;;;;;;;5.22;75.95;101475.31;10416755;28;20072;-62
2023/12/03 20:35:34;;;;;;;1999.90;999.90;;;;;;;6.02;72.36;101462.03;10416659;28;20052;-61
2023/12/03 20:40:36;;;;;;;1999.90;999.90;;;;;;;5.74;73.43;101458.41;10416593;28;20050;-62
2023/12/03 20:45:39;;;;;;;1999.90;999.90;;;;;;;5.92;73.30;101451.88;10416185;28;20064;-62
2023/12/03 20:50:41;;;;;;;1999.90;999.90;;;;;;;5.56;74.87;101443.31;10416605;28;20489;-62
2023/12/03 20:55:43;;;;;;;1999.90;999.90;;;;;;;5.97;72.41;101450.91;10415728;28;20057;-62
2023/12/03 21:00:46;;;;;;;1999.90;999.90;;;;;;;5.36;75.24;101439.50;10415639;28;20077;-61
2023/12/03 21:05:48;;;;;;;1999.90;999.90;;;;;;;5.70;71.71;101440.34;10415845;28;20124;-62
2023/12/03 21:10:51;;;;;;;1999.90;999.90;;;;;;;5.11;74.48;101433.19;10415491;28;20048;-62
2023/12/03 21:15:53;;;;;;;1999.90;999.90;;;;;;;5.94;73.92;101420.63;10415529;28;20053;-62
2023/12/03 21:20:55;;;;;;;1999.90;999.90;;;;;;;5.85;74.32;101418.28;10415248;28;20045;-61
2023/12/03 21:25:58;;;;;;;1999.90;999.90;;;;;;;5.45;74.85;101407.25;10415073;28;20046;-61
2023/12/03 21:31:00;;;;;;;1999.90;999.90;;;;;;;5.29;74.41;101400.72;10414949;28;20045;-61
2023/12/03 21:36:03;;;;;;;1999.90;999.90;;;;;;;5.79;74.51;101395.09;10414929;28;20444;-62
2023/12/03 21:41:05;;;;;;;1999.90;999.90;;;;;;;5.80;74.12;101386.38;10414889;28;20072;-62
2023/12/03 21:46:08;;;;;;;1999.90;999.90;;;;;;;6.15;71.92;101388.00;10413697;28;20077;-62
2023/12/03 21:51:10;;;;;;;1999.90;999.90;;;;;;;6.08;73.85;101381.28;10413914;28;20045;-62
2023/12/03 21:56:13;;;;;;;1999.90;999.90;;;;;;;6.73;69.29;101359.34;10413349;28;20132;-62
2023/12/03 22:01:15;;;;;;;1999.90;999.90;;;;;;;5.67;73.91;101363.34;10414329;28;20056;-62
2023/12/03 22:06:18;;;;;;;1999.90;999.90;;;;;;;5.22;75.86;101348.13;10414510;28;20056;-61
2023/12/03 22:11:20;;;;;;;1999.90;999.90;;;;;;;5.98;73.64;101349.50;10414265;28;20056;-61